Forside
METAR-TAF:

METAR-TAF

Lufthavne :

Birmingham Airport

Birmingham, England

Breddekreds: 52-27N, længdekreds: 001-44W, højde: 99 m

Aktuelle vejr

Denne rapport blev lavet for 40 minutter siden, kl. 01:50 UTC
Vind 2 kt fra varierende retninger
Temperatur 8°C
Fugtighed 66%
Tryk 1034 hPa
Sigt 10 km eller mere

METAR: EGBB 250150Z AUTO VRB02KT 9999 NCD 08/02 Q1034

Tid: 03:30 (02:30 UTC)

Vejrudsigter

Denne rapport blev lavet for 3 timer og 39 minutter siden, kl. 22:51 UTC
Foreløbig gælder fra 25 på 00 UTC til 25 på 24 UTC
Vind 5 kt fra vestnordvest
Sigt 10 km eller mere
Nogle få skyer i en højde af 3500 ft
Sandsynlighed 30%
fra 25 på 00 UTC til 25 på 06 UTC
Sigt: 4000 m
dis, Let tåge
ændring
fra 25 på 09 UTC til 25 på 12 UTC
Vind 10 kt fra sydvest

TAF: EGBB 242251Z 2500/2524 29005KT 9999 FEW035 PROB30 2500/2506 4000 BR MIFG BECMG 2509/2512 23010KT

Vejrobservationer og prognoser fra mere end 4000 lufthavne (METAR og TAF).

De gule og røde prikker repræsenterer de meteorologiske stationer.

Flyt musen over at se navnet på stationen.

Så klik over at se vejr observationer og prognoser.

At skifte det kort: Klik på de grønne knapper med et sort kors for at zoome ind; på den grønne knap med en bindestreg for at zoome ud; eller på de grønne pile for tilstødende kort.


METAR-TAF: